EXS195 LOWI-LEPA
Flight info
| Callsign | EXS195 |
|---|---|
| Flight time | 1h 48m |
| Altitude | 19000 |
| Route | BRENO M726 NAXAV/N0457F350 DCT PIDAD DCT TALEP DCT VAREK DCT ERPIN DCT BALEN UT250 RIXOT |
| Aircraft | B738/M-SDE2E3FGHIRWXY/LB1 |
Departure
| Time | 2026-05-04 15:02 |
|---|---|
| Airport | Innsbruck Airport (LOWI) |
Arrival
| Time | 2026-05-04 16:50 |
|---|---|
| Airport | Palma de Mallorca Airport (LEPA) |
| Time | Latitude | Longitude | Altitude | Speed | Heading |
|---|---|---|---|---|---|
| 2026-05-04 14:33 | 47.25792 | 11.34752 | 1914 ft | 0 kts | 173° |
| 2026-05-04 14:54 | 47.25796 | 11.34752 | 1900 ft | 1 kts | 173° |
| 2026-05-04 14:55 | 47.25803 | 11.34750 | 1902 ft | 1 kts | 173° |
| 2026-05-04 14:55 | 47.25816 | 11.34748 | 1905 ft | 2 kts | 175° |
| 2026-05-04 14:55 | 47.25829 | 11.34747 | 1903 ft | 1 kts | 211° |
| 2026-05-04 14:55 | 47.25835 | 11.34755 | 1900 ft | 2 kts | 239° |
| 2026-05-04 14:56 | 47.25842 | 11.34774 | 1898 ft | 2 kts | 241° |
| 2026-05-04 14:56 | 47.25849 | 11.34795 | 1900 ft | 2 kts | 255° |
| 2026-05-04 14:56 | 47.25850 | 11.34800 | 1900 ft | 0 kts | 260° |
| 2026-05-04 14:58 | 47.25847 | 11.34770 | 1898 ft | 9 kts | 260° |
| 2026-05-04 14:58 | 47.25833 | 11.34644 | 1910 ft | 15 kts | 261° |
| 2026-05-04 14:58 | 47.25812 | 11.34453 | 1914 ft | 22 kts | 261° |
| 2026-05-04 14:59 | 47.25785 | 11.34201 | 1911 ft | 26 kts | 261° |
| 2026-05-04 14:59 | 47.25782 | 11.33951 | 1904 ft | 24 kts | 290° |
| 2026-05-04 14:59 | 47.25931 | 11.33552 | 1910 ft | 22 kts | 262° |
| 2026-05-04 15:00 | 47.25907 | 11.33331 | 1908 ft | 21 kts | 260° |
| 2026-05-04 15:00 | 47.25851 | 11.33171 | 1907 ft | 13 kts | 232° |
| 2026-05-04 15:00 | 47.25877 | 11.33126 | 1904 ft | 6 kts | 16° |
| 2026-05-04 15:01 | 47.25897 | 11.33241 | 1914 ft | 11 kts | 83° |
| 2026-05-04 15:01 | 47.25941 | 11.33671 | 1913 ft | 77 kts | 81° |
| 2026-05-04 15:01 | 47.26062 | 11.34774 | 1914 ft | 139 kts | 81° |
| 2026-05-04 15:01 | 47.26227 | 11.36387 | 2141 ft | 170 kts | 84° |
| 2026-05-04 15:02 | 47.26446 | 11.38164 | 2854 ft | 179 kts | 83° |
| 2026-05-04 15:02 | 47.26652 | 11.40086 | 3436 ft | 203 kts | 85° |
| 2026-05-04 15:02 | 47.26878 | 11.42186 | 3894 ft | 205 kts | 84° |
| 2026-05-04 15:02 | 47.27101 | 11.44223 | 4397 ft | 206 kts | 84° |
| 2026-05-04 15:03 | 47.27445 | 11.46224 | 4841 ft | 199 kts | 72° |
| 2026-05-04 15:03 | 47.27989 | 11.48134 | 5266 ft | 208 kts | 71° |
| 2026-05-04 15:03 | 47.28584 | 11.50131 | 5874 ft | 215 kts | 69° |
| 2026-05-04 15:03 | 47.29181 | 11.52157 | 6481 ft | 222 kts | 70° |
| 2026-05-04 15:04 | 47.29781 | 11.54238 | 7082 ft | 225 kts | 70° |
| 2026-05-04 15:04 | 47.30396 | 11.56390 | 7196 ft | 225 kts | 70° |
| 2026-05-04 15:04 | 47.30985 | 11.58455 | 7327 ft | 213 kts | 71° |
| 2026-05-04 15:04 | 47.31536 | 11.60424 | 7499 ft | 205 kts | 76° |
| 2026-05-04 15:05 | 47.31562 | 11.62419 | 7721 ft | 193 kts | 116° |
| 2026-05-04 15:05 | 47.30819 | 11.63993 | 8359 ft | 184 kts | 148° |
| 2026-05-04 15:05 | 47.29665 | 11.64702 | 8998 ft | 183 kts | 178° |
| 2026-05-04 15:05 | 47.28384 | 11.64348 | 9285 ft | 199 kts | 210° |
| 2026-05-04 15:06 | 47.27387 | 11.62866 | 9511 ft | 214 kts | 240° |
| 2026-05-04 15:06 | 47.26878 | 11.60708 | 9865 ft | 233 kts | 251° |
| 2026-05-04 15:06 | 47.26429 | 11.58316 | 10224 ft | 250 kts | 251° |
| 2026-05-04 15:07 | 47.25455 | 11.53055 | 11028 ft | 278 kts | 251° |
| 2026-05-04 15:07 | 47.24934 | 11.50307 | 11435 ft | 279 kts | 252° |
| 2026-05-04 15:07 | 47.24404 | 11.47524 | 11860 ft | 286 kts | 251° |
| 2026-05-04 15:07 | 47.23859 | 11.44702 | 12314 ft | 289 kts | 249° |
| 2026-05-04 15:08 | 47.22864 | 11.42111 | 12766 ft | 297 kts | 225° |
| 2026-05-04 15:08 | 47.21169 | 11.40361 | 13345 ft | 304 kts | 202° |
| 2026-05-04 15:08 | 47.19084 | 11.39645 | 13848 ft | 314 kts | 187° |
| 2026-05-04 15:08 | 47.16901 | 11.39409 | 14344 ft | 323 kts | 185° |
| 2026-05-04 15:09 | 47.14626 | 11.39237 | 14825 ft | 331 kts | 184° |
| 2026-05-04 15:09 | 47.12292 | 11.39049 | 15232 ft | 340 kts | 185° |
| 2026-05-04 15:09 | 47.09912 | 11.38815 | 15762 ft | 347 kts | 185° |
| 2026-05-04 15:10 | 47.04974 | 11.38384 | 16736 ft | 362 kts | 185° |
| 2026-05-04 15:10 | 47.02433 | 11.38140 | 17247 ft | 369 kts | 185° |
| 2026-05-04 15:10 | 46.97237 | 11.37626 | 18239 ft | 380 kts | 185° |
| 2026-05-04 15:11 | 46.94563 | 11.37337 | 18534 ft | 390 kts | 186° |
| 2026-05-04 15:11 | 46.91857 | 11.37036 | 19008 ft | 391 kts | 186° |
| 2026-05-04 15:11 | 46.89135 | 11.36736 | 19479 ft | 395 kts | 186° |
| 2026-05-04 15:11 | 46.86376 | 11.36434 | 19934 ft | 398 kts | 186° |
| 2026-05-04 15:12 | 46.83606 | 11.36132 | 20409 ft | 401 kts | 185° |
| 2026-05-04 15:12 | 46.80811 | 11.35828 | 20852 ft | 403 kts | 186° |
| 2026-05-04 15:12 | 46.78006 | 11.35525 | 21341 ft | 405 kts | 186° |
| 2026-05-04 15:12 | 46.75187 | 11.35224 | 21817 ft | 407 kts | 186° |
| 2026-05-04 15:13 | 46.72388 | 11.34929 | 22310 ft | 408 kts | 186° |
| 2026-05-04 15:13 | 46.69521 | 11.34628 | 22825 ft | 409 kts | 186° |
| 2026-05-04 15:13 | 46.66718 | 11.34334 | 23317 ft | 409 kts | 186° |
| 2026-05-04 15:13 | 46.63873 | 11.34035 | 23796 ft | 410 kts | 186° |
| 2026-05-04 15:14 | 46.61030 | 11.33735 | 24206 ft | 409 kts | 186° |
| 2026-05-04 15:14 | 46.58193 | 11.33437 | 24655 ft | 409 kts | 186° |
| 2026-05-04 15:14 | 46.55354 | 11.33139 | 25097 ft | 409 kts | 185° |
| 2026-05-04 15:14 | 46.52521 | 11.32841 | 25554 ft | 408 kts | 186° |
| 2026-05-04 15:15 | 46.49699 | 11.32496 | 26010 ft | 406 kts | 189° |
| 2026-05-04 15:15 | 46.46961 | 11.31570 | 26483 ft | 403 kts | 199° |
| 2026-05-04 15:15 | 46.44366 | 11.30076 | 26952 ft | 401 kts | 207° |
| 2026-05-04 15:16 | 46.39674 | 11.25803 | 27951 ft | 396 kts | 214° |
| 2026-05-04 15:16 | 46.37398 | 11.23549 | 28558 ft | 396 kts | 214° |
| 2026-05-04 15:16 | 46.32850 | 11.19048 | 29436 ft | 395 kts | 214° |
| 2026-05-04 15:17 | 46.30575 | 11.16814 | 29879 ft | 394 kts | 214° |
| 2026-05-04 15:17 | 46.25982 | 11.12335 | 30208 ft | 405 kts | 214° |
| 2026-05-04 15:17 | 46.23620 | 11.10043 | 30296 ft | 412 kts | 214° |
| 2026-05-04 15:18 | 46.21235 | 11.07733 | 30537 ft | 414 kts | 214° |
| 2026-05-04 15:18 | 46.18868 | 11.05443 | 30771 ft | 415 kts | 214° |
| 2026-05-04 15:18 | 46.16466 | 11.03124 | 30994 ft | 416 kts | 214° |
| 2026-05-04 15:19 | 46.11641 | 10.98471 | 31480 ft | 418 kts | 214° |
| 2026-05-04 15:19 | 46.09218 | 10.96138 | 31727 ft | 419 kts | 214° |
| 2026-05-04 15:19 | 46.04368 | 10.91478 | 32196 ft | 419 kts | 214° |
| 2026-05-04 15:20 | 46.01949 | 10.89157 | 32459 ft | 418 kts | 214° |
| 2026-05-04 15:20 | 45.99525 | 10.86834 | 32707 ft | 418 kts | 214° |
| 2026-05-04 15:20 | 45.97108 | 10.84520 | 32959 ft | 418 kts | 214° |
| 2026-05-04 15:20 | 45.94685 | 10.82202 | 33236 ft | 418 kts | 214° |
| 2026-05-04 15:21 | 45.92260 | 10.79885 | 33502 ft | 419 kts | 214° |
| 2026-05-04 15:21 | 45.89866 | 10.77600 | 33777 ft | 419 kts | 215° |
| 2026-05-04 15:21 | 45.85006 | 10.72969 | 34275 ft | 420 kts | 215° |
| 2026-05-04 15:22 | 45.82573 | 10.70654 | 34510 ft | 419 kts | 215° |
| 2026-05-04 15:22 | 45.80137 | 10.68339 | 34670 ft | 421 kts | 215° |
| 2026-05-04 15:22 | 45.75198 | 10.63650 | 34770 ft | 430 kts | 215° |
| 2026-05-04 15:23 | 45.72696 | 10.61280 | 34883 ft | 432 kts | 216° |
| 2026-05-04 15:23 | 45.70188 | 10.58907 | 35032 ft | 430 kts | 216° |
| 2026-05-04 15:23 | 45.65194 | 10.54191 | 35069 ft | 432 kts | 216° |
| 2026-05-04 15:24 | 45.55150 | 10.44733 | 35056 ft | 433 kts | 216° |
| 2026-05-04 15:25 | 45.50152 | 10.40042 | 35050 ft | 433 kts | 216° |
| 2026-05-04 15:26 | 45.42594 | 10.32967 | 35047 ft | 433 kts | 216° |
| 2026-05-04 15:26 | 45.35021 | 10.25901 | 35053 ft | 437 kts | 216° |
| 2026-05-04 15:27 | 45.27371 | 10.18786 | 35052 ft | 439 kts | 216° |
| 2026-05-04 15:28 | 45.19705 | 10.11680 | 35053 ft | 439 kts | 216° |
| 2026-05-04 15:29 | 45.12050 | 10.04609 | 35070 ft | 437 kts | 216° |
| 2026-05-04 15:30 | 44.94284 | 9.88283 | 35072 ft | 434 kts | 216° |
| 2026-05-04 15:31 | 44.86701 | 9.81351 | 35074 ft | 432 kts | 216° |
| 2026-05-04 15:32 | 44.74092 | 9.69875 | 35079 ft | 431 kts | 216° |
| 2026-05-04 15:34 | 44.61510 | 9.58483 | 35073 ft | 430 kts | 216° |
| 2026-05-04 15:34 | 44.53976 | 9.51690 | 35082 ft | 428 kts | 216° |
| 2026-05-04 15:35 | 44.46468 | 9.44942 | 35087 ft | 427 kts | 216° |
| 2026-05-04 15:36 | 44.38992 | 9.38243 | 35088 ft | 427 kts | 216° |
| 2026-05-04 15:36 | 44.33990 | 9.33772 | 35085 ft | 427 kts | 216° |
| 2026-05-04 15:37 | 44.29802 | 9.30037 | 35081 ft | 426 kts | 216° |
| 2026-05-04 15:37 | 44.24815 | 9.25596 | 35091 ft | 424 kts | 217° |
| 2026-05-04 15:38 | 44.19872 | 9.21204 | 35089 ft | 424 kts | 217° |
| 2026-05-04 15:38 | 44.14907 | 9.16801 | 35077 ft | 423 kts | 217° |
| 2026-05-04 15:39 | 44.09941 | 9.12406 | 35075 ft | 422 kts | 217° |
| 2026-05-04 15:40 | 44.02520 | 9.05855 | 35065 ft | 421 kts | 217° |
| 2026-05-04 15:40 | 43.97584 | 9.01508 | 35069 ft | 420 kts | 217° |
| 2026-05-04 15:41 | 43.92656 | 8.97177 | 35074 ft | 419 kts | 217° |
| 2026-05-04 15:41 | 43.87734 | 8.92859 | 35068 ft | 418 kts | 217° |
| 2026-05-04 15:42 | 43.82825 | 8.88562 | 35064 ft | 417 kts | 217° |
| 2026-05-04 15:42 | 43.77958 | 8.84309 | 35056 ft | 415 kts | 217° |
| 2026-05-04 15:43 | 43.73074 | 8.80050 | 35055 ft | 414 kts | 217° |
| 2026-05-04 15:43 | 43.68198 | 8.75804 | 35049 ft | 413 kts | 217° |
| 2026-05-04 15:44 | 43.63349 | 8.71572 | 35045 ft | 411 kts | 219° |
| 2026-05-04 15:44 | 43.58975 | 8.66612 | 35044 ft | 406 kts | 225° |
| 2026-05-04 15:45 | 43.54724 | 8.61503 | 35040 ft | 405 kts | 225° |
| 2026-05-04 15:45 | 43.50469 | 8.56420 | 35035 ft | 404 kts | 225° |
| 2026-05-04 15:46 | 43.46237 | 8.51392 | 35033 ft | 404 kts | 225° |
| 2026-05-04 15:46 | 43.41983 | 8.46354 | 35033 ft | 403 kts | 225° |
| 2026-05-04 15:47 | 43.37731 | 8.41329 | 35033 ft | 403 kts | 225° |
| 2026-05-04 15:47 | 43.33482 | 8.36318 | 35032 ft | 402 kts | 225° |
| 2026-05-04 15:48 | 43.29234 | 8.31317 | 35028 ft | 401 kts | 225° |
| 2026-05-04 15:48 | 43.22872 | 8.23846 | 35023 ft | 401 kts | 224° |
| 2026-05-04 15:49 | 43.18641 | 8.18889 | 35026 ft | 400 kts | 224° |
| 2026-05-04 15:49 | 43.14419 | 8.13951 | 35027 ft | 399 kts | 224° |
| 2026-05-04 15:50 | 43.10200 | 8.09027 | 35028 ft | 398 kts | 224° |
| 2026-05-04 15:50 | 43.05990 | 8.04122 | 35025 ft | 397 kts | 224° |
| 2026-05-04 15:51 | 43.01783 | 7.99230 | 35026 ft | 396 kts | 224° |
| 2026-05-04 15:51 | 42.97603 | 7.94379 | 35029 ft | 396 kts | 224° |
| 2026-05-04 15:52 | 42.93413 | 7.89524 | 35025 ft | 395 kts | 224° |
| 2026-05-04 15:52 | 42.89220 | 7.84674 | 35029 ft | 394 kts | 224° |
| 2026-05-04 15:53 | 42.85036 | 7.79845 | 35027 ft | 394 kts | 224° |
| 2026-05-04 15:53 | 42.80874 | 7.75050 | 35028 ft | 393 kts | 224° |
| 2026-05-04 15:54 | 42.76695 | 7.70243 | 35027 ft | 393 kts | 224° |
| 2026-05-04 15:54 | 42.72512 | 7.65442 | 35023 ft | 393 kts | 224° |
| 2026-05-04 15:55 | 42.68331 | 7.60651 | 35024 ft | 393 kts | 224° |
| 2026-05-04 15:55 | 42.64150 | 7.55868 | 35028 ft | 393 kts | 224° |
| 2026-05-04 15:56 | 42.59959 | 7.51082 | 35016 ft | 394 kts | 223° |
| 2026-05-04 15:56 | 42.55909 | 7.46467 | 35021 ft | 393 kts | 223° |
| 2026-05-04 15:57 | 42.51723 | 7.41706 | 35020 ft | 394 kts | 223° |
| 2026-05-04 15:57 | 42.47521 | 7.36933 | 35021 ft | 394 kts | 223° |
| 2026-05-04 15:58 | 42.43318 | 7.32170 | 35018 ft | 394 kts | 223° |
| 2026-05-04 15:58 | 42.39141 | 7.27443 | 35018 ft | 394 kts | 223° |
| 2026-05-04 15:59 | 42.34926 | 7.22683 | 35018 ft | 394 kts | 223° |
| 2026-05-04 15:59 | 42.30712 | 7.17931 | 35018 ft | 394 kts | 223° |
| 2026-05-04 16:00 | 42.26488 | 7.13177 | 35008 ft | 395 kts | 223° |
| 2026-05-04 16:00 | 42.22260 | 7.08428 | 35001 ft | 395 kts | 223° |
| 2026-05-04 16:01 | 42.18039 | 7.03696 | 35011 ft | 394 kts | 223° |
| 2026-05-04 16:01 | 42.13823 | 6.98977 | 35013 ft | 394 kts | 223° |
| 2026-05-04 16:02 | 42.09607 | 6.94266 | 35002 ft | 394 kts | 223° |
| 2026-05-04 16:03 | 42.03302 | 6.87237 | 35003 ft | 394 kts | 223° |
| 2026-05-04 16:03 | 41.99071 | 6.82530 | 34998 ft | 395 kts | 223° |
| 2026-05-04 16:04 | 41.94833 | 6.77824 | 34996 ft | 396 kts | 222° |
| 2026-05-04 16:04 | 41.88452 | 6.70755 | 35006 ft | 397 kts | 222° |
| 2026-05-04 16:05 | 41.84167 | 6.66018 | 34993 ft | 400 kts | 222° |
| 2026-05-04 16:06 | 41.77715 | 6.58902 | 34982 ft | 400 kts | 222° |
| 2026-05-04 16:07 | 41.69137 | 6.49471 | 34980 ft | 400 kts | 222° |
| 2026-05-04 16:08 | 41.60514 | 6.40023 | 34989 ft | 402 kts | 221° |
| 2026-05-04 16:09 | 41.49677 | 6.28199 | 34967 ft | 401 kts | 221° |
| 2026-05-04 16:10 | 41.41029 | 6.18800 | 34965 ft | 400 kts | 221° |
| 2026-05-04 16:11 | 41.32383 | 6.09436 | 34961 ft | 400 kts | 221° |
| 2026-05-04 16:12 | 41.19376 | 5.95410 | 34950 ft | 404 kts | 221° |
| 2026-05-04 16:13 | 41.10646 | 5.86039 | 34949 ft | 403 kts | 221° |
| 2026-05-04 16:14 | 41.01958 | 5.76743 | 34945 ft | 403 kts | 221° |
| 2026-05-04 16:16 | 40.91956 | 5.63998 | 34961 ft | 400 kts | 235° |
| 2026-05-04 16:17 | 40.83925 | 5.48910 | 34844 ft | 407 kts | 234° |
| 2026-05-04 16:18 | 40.79040 | 5.39831 | 34076 ft | 401 kts | 234° |
| 2026-05-04 16:18 | 40.77419 | 5.36828 | 33838 ft | 402 kts | 234° |
| 2026-05-04 16:19 | 40.72524 | 5.27771 | 33035 ft | 405 kts | 234° |
| 2026-05-04 16:19 | 40.69262 | 5.21749 | 32515 ft | 406 kts | 234° |
| 2026-05-04 16:20 | 40.64323 | 5.12654 | 31574 ft | 407 kts | 234° |
| 2026-05-04 16:20 | 40.61062 | 5.06663 | 30502 ft | 398 kts | 234° |
| 2026-05-04 16:21 | 40.56277 | 4.97895 | 28821 ft | 389 kts | 234° |
| 2026-05-04 16:22 | 40.53677 | 4.93139 | 27915 ft | 382 kts | 234° |
| 2026-05-04 16:22 | 40.48574 | 4.83827 | 26194 ft | 372 kts | 234° |
| 2026-05-04 16:23 | 40.44568 | 4.76535 | 24796 ft | 368 kts | 234° |
| 2026-05-04 16:24 | 40.38570 | 4.65750 | 22778 ft | 361 kts | 235° |
| 2026-05-04 16:25 | 40.35638 | 4.60448 | 22144 ft | 367 kts | 235° |
| 2026-05-04 16:26 | 40.29602 | 4.49534 | 20833 ft | 366 kts | 235° |
| 2026-05-04 16:26 | 40.25135 | 4.41485 | 19884 ft | 363 kts | 235° |
| 2026-05-04 16:27 | 40.22180 | 4.36174 | 19260 ft | 363 kts | 235° |
| 2026-05-04 16:28 | 40.17731 | 4.28191 | 18322 ft | 357 kts | 235° |
| 2026-05-04 16:28 | 40.13358 | 4.20367 | 17323 ft | 357 kts | 234° |
| 2026-05-04 16:29 | 40.07565 | 4.10030 | 16079 ft | 349 kts | 234° |
| 2026-05-04 16:30 | 40.03288 | 4.02421 | 15173 ft | 343 kts | 234° |
| 2026-05-04 16:31 | 40.00474 | 3.97424 | 14578 ft | 341 kts | 234° |
| 2026-05-04 16:31 | 39.96296 | 3.90018 | 13690 ft | 337 kts | 234° |
| 2026-05-04 16:32 | 39.92381 | 3.83093 | 12775 ft | 296 kts | 234° |
| 2026-05-04 16:33 | 39.90034 | 3.78953 | 12260 ft | 273 kts | 234° |
| 2026-05-04 16:33 | 39.87809 | 3.75034 | 11800 ft | 265 kts | 234° |
| 2026-05-04 16:34 | 39.85620 | 3.71185 | 11310 ft | 266 kts | 234° |
| 2026-05-04 16:34 | 39.84515 | 3.69244 | 11062 ft | 265 kts | 234° |
| 2026-05-04 16:35 | 39.81361 | 3.63708 | 10311 ft | 243 kts | 233° |
| 2026-05-04 16:35 | 39.78378 | 3.58479 | 9591 ft | 240 kts | 233° |
| 2026-05-04 16:36 | 39.77385 | 3.56741 | 9331 ft | 240 kts | 233° |
| 2026-05-04 16:36 | 39.75405 | 3.53276 | 8835 ft | 243 kts | 233° |
| 2026-05-04 16:37 | 39.73422 | 3.49809 | 8362 ft | 229 kts | 233° |
| 2026-05-04 16:37 | 39.72486 | 3.48176 | 8120 ft | 222 kts | 233° |
| 2026-05-04 16:37 | 39.70679 | 3.45026 | 7989 ft | 220 kts | 233° |
| 2026-05-04 16:38 | 39.69781 | 3.41371 | 7776 ft | 213 kts | 267° |
| 2026-05-04 16:39 | 39.69981 | 3.35761 | 7173 ft | 205 kts | 269° |
| 2026-05-04 16:39 | 39.70115 | 3.32215 | 6850 ft | 193 kts | 269° |
| 2026-05-04 16:40 | 39.70234 | 3.28748 | 6325 ft | 192 kts | 269° |
| 2026-05-04 16:40 | 39.70348 | 3.25252 | 5775 ft | 196 kts | 269° |
| 2026-05-04 16:41 | 39.70459 | 3.21796 | 5603 ft | 179 kts | 269° |
| 2026-05-04 16:41 | 39.70618 | 3.16596 | 5367 ft | 203 kts | 269° |
| 2026-05-04 16:42 | 39.70791 | 3.10865 | 4828 ft | 216 kts | 269° |
| 2026-05-04 16:43 | 39.70048 | 3.07254 | 4444 ft | 208 kts | 245° |
| 2026-05-04 16:43 | 39.68767 | 3.04082 | 4065 ft | 190 kts | 238° |
| 2026-05-04 16:43 | 39.68084 | 3.02631 | 3908 ft | 187 kts | 238° |
| 2026-05-04 16:44 | 39.65391 | 2.96963 | 3260 ft | 176 kts | 238° |
| 2026-05-04 16:45 | 39.64113 | 2.94268 | 2975 ft | 176 kts | 238° |
| 2026-05-04 16:46 | 39.62152 | 2.90134 | 2505 ft | 182 kts | 237° |
| 2026-05-04 16:46 | 39.60853 | 2.87390 | 2036 ft | 174 kts | 237° |
| 2026-05-04 16:47 | 39.59621 | 2.84791 | 1572 ft | 168 kts | 237° |
| 2026-05-04 16:47 | 39.58509 | 2.82441 | 1198 ft | 140 kts | 236° |
| 2026-05-04 16:48 | 39.57019 | 2.79293 | 636 ft | 131 kts | 237° |
| 2026-05-04 16:48 | 39.56547 | 2.78281 | 427 ft | 131 kts | 236° |
| 2026-05-04 16:49 | 39.55598 | 2.76281 | 64 ft | 130 kts | 237° |
| 2026-05-04 16:49 | 39.54839 | 2.74681 | 27 ft | 58 kts | 239° |
| 2026-05-04 16:50 | 39.54571 | 2.74082 | 30 ft | 22 kts | 252° |
| 2026-05-04 16:50 | 39.54550 | 2.73876 | 30 ft | 4 kts | 267° |
| 2026-05-04 16:51 | 39.54549 | 2.73845 | 30 ft | 1 kts | 268° |
| 2026-05-04 16:51 | 39.54548 | 2.73832 | 30 ft | 2 kts | 268° |
| 2026-05-04 16:51 | 39.54553 | 2.73719 | 31 ft | 2 kts | 284° |
| 2026-05-04 16:52 | 39.54556 | 2.73709 | 31 ft | 0 kts | 290° |
| 2026-05-04 16:52 | 39.54560 | 2.73697 | 31 ft | 3 kts | 294° |
| 2026-05-04 16:53 | 39.54622 | 2.73627 | 31 ft | 7 kts | 348° |
| 2026-05-04 16:53 | 39.54712 | 2.73662 | 30 ft | 4 kts | 60° |
| 2026-05-04 16:54 | 39.54718 | 2.73674 | 30 ft | 0 kts | 59° |